PWSweather.com
Personal Weather Stations
Station Observations
KYSHEP1
Lotus Point, Shepherdsville, KY 40165

Lotus PointShepherdsville, KY 40165

Lat: 37.933, Lon: -85.59

Elevation: 709

Station Type: WeatherFlow

http://bullittcountyky.us/weather/index.php

Latest ConditionsUpdated 4:10:03 AM EDT Sunday, Jun 16, 2019
Currently Today's Max Today's Min Today's Average
Temperature 74.8°F23.8°C 76.5°F24.7°C 74.8°F23.8°C 75.7°F24.3°C
Dew Point 67.9°F19.9°C 68.9°F20.5°C 67.5°F19.7°C 68.0°F20.0°C
Winds Calm Calm 2.3 mph -3.7 kmh - - 0.3 mph 0.5 kmh
Wind Gusts 5.8 mph9.3 kmh 8.1 mph13.0 kmh - -
Humidity 79% 79% 75% 77%
Pressure 29.85 in1010.8 mb 29.88 in1011.9 mb 29.85 in1010.8 mb -
Hour Temp Dew Point Humidity Winds Wind Gusts Pressure Precip Precip Rate Daily Precip Total
04:10 AM 74.8°F23.8°C 67.9°F19.9°C 79% Calm Calm 5.8 mph9.3 kmh 29.85 in1010.8 mb - 0.00 in0.0 mm 0.00 in0.0 mm
04:00 AM 74.8°F23.8°C 67.9°F19.9°C 79% Calm Calm 3.5 mph5.6 kmh 29.85 in1010.8 mb - 0.00 in0.0 mm 0.00 in0.0 mm
03:55 AM 74.8°F23.8°C 67.9°F19.9°C 79% 2.3 mph NNE3.7 kmh NNE 8.1 mph13.0 kmh 29.85 in1010.8 mb - 0.00 in0.0 mm 0.00 in0.0 mm
03:50 AM 75.0°F23.9°C 68.1°F20.1°C 79% Calm Calm -- 29.85 in1010.8 mb - 0.00 in0.0 mm 0.00 in0.0 mm
03:45 AM 75.2°F24.0°C 67.9°F19.9°C 78% Calm Calm -- 29.86 in1011.2 mb - 0.00 in0.0 mm 0.00 in0.0 mm
03:40 AM 75.2°F24.0°C 67.9°F19.9°C 78% Calm Calm -- 29.86 in1011.2 mb - 0.00 in0.0 mm 0.00 in0.0 mm
03:35 AM 75.2°F24.0°C 67.9°F19.9°C 78% Calm Calm 2.3 mph3.7 kmh 29.86 in1011.2 mb - 0.00 in0.0 mm 0.00 in0.0 mm
03:30 AM 75.4°F24.1°C 68.0°F20.0°C 78% 2.3 mph NNE3.7 kmh NNE 3.5 mph5.6 kmh 29.86 in1011.2 mb - 0.00 in0.0 mm 0.00 in0.0 mm
03:25 AM 75.4°F24.1°C 68.0°F20.0°C 78% Calm Calm -- 29.86 in1011.2 mb - 0.00 in0.0 mm 0.00 in0.0 mm
03:20 AM 75.4°F24.1°C 68.4°F20.2°C 79% Calm Calm 3.5 mph5.6 kmh 29.86 in1011.2 mb - 0.00 in0.0 mm 0.00 in0.0 mm
03:15 AM 75.7°F24.3°C 67.6°F19.8°C 76% 1.2 mph 1.9 kmh -- 29.86 in1011.2 mb - 0.00 in0.0 mm 0.00 in0.0 mm
03:10 AM 75.7°F24.3°C 67.6°F19.8°C 76% Calm Calm 2.3 mph3.7 kmh 29.86 in1011.2 mb - 0.00 in0.0 mm 0.00 in0.0 mm
03:00 AM 75.9°F24.4°C 67.8°F19.9°C 76% 1.2 mph N1.9 kmh N -- 29.86 in1011.2 mb - 0.00 in0.0 mm 0.00 in0.0 mm
02:55 AM 75.9°F24.4°C 67.8°F19.9°C 76% 1.2 mph N1.9 kmh N 3.5 mph5.6 kmh 29.86 in1011.2 mb - 0.00 in0.0 mm 0.00 in0.0 mm
02:50 AM 75.9°F24.4°C 67.8°F19.9°C 76% Calm Calm 2.3 mph3.7 kmh 29.87 in1011.5 mb - 0.00 in0.0 mm 0.00 in0.0 mm
02:45 AM 75.9°F24.4°C 67.8°F19.9°C 76% Calm Calm -- 29.87 in1011.5 mb - 0.00 in0.0 mm 0.00 in0.0 mm
02:40 AM 75.9°F24.4°C 67.8°F19.9°C 76% Calm Calm 3.5 mph5.6 kmh 29.87 in1011.5 mb - 0.00 in0.0 mm 0.00 in0.0 mm
02:35 AM 75.9°F24.4°C 67.8°F19.9°C 76% 1.2 mph N1.9 kmh N 3.5 mph5.6 kmh 29.87 in1011.5 mb - 0.00 in0.0 mm 0.00 in0.0 mm
02:30 AM 75.9°F24.4°C 67.8°F19.9°C 76% Calm Calm 5.8 mph9.3 kmh 29.87 in1011.5 mb - 0.00 in0.0 mm 0.00 in0.0 mm
02:25 AM 75.9°F24.4°C 68.6°F20.3°C 78% Calm Calm -- 29.88 in1011.9 mb - 0.00 in0.0 mm 0.00 in0.0 mm
02:20 AM 75.9°F24.4°C 67.8°F19.9°C 76% Calm Calm 4.6 mph7.4 kmh 29.88 in1011.9 mb - 0.00 in0.0 mm 0.00 in0.0 mm
02:15 AM 75.7°F24.3°C 67.6°F19.8°C 76% Calm Calm -- 29.88 in1011.9 mb - 0.00 in0.0 mm 0.00 in0.0 mm
02:10 AM 75.6°F24.2°C 67.5°F19.7°C 76% 1.2 mph N1.9 kmh N 3.5 mph5.6 kmh 29.88 in1011.9 mb - 0.00 in0.0 mm 0.00 in0.0 mm
02:00 AM 75.6°F24.2°C 68.2°F20.1°C 78% Calm Calm 2.3 mph3.7 kmh 29.88 in1011.9 mb - 0.00 in0.0 mm 0.00 in0.0 mm
01:55 AM 75.6°F24.2°C 67.5°F19.7°C 76% Calm Calm 4.6 mph7.4 kmh 29.88 in1011.9 mb - 0.00 in0.0 mm 0.00 in0.0 mm
01:50 AM 75.7°F24.3°C 67.6°F19.8°C 76% Calm Calm -- 29.88 in1011.9 mb - 0.00 in0.0 mm 0.00 in0.0 mm
01:45 AM 75.6°F24.2°C 68.2°F20.1°C 78% Calm Calm 2.3 mph3.7 kmh 29.88 in1011.9 mb - 0.00 in0.0 mm 0.00 in0.0 mm
01:40 AM 75.6°F24.2°C 67.5°F19.7°C 76% Calm Calm 2.3 mph3.7 kmh 29.88 in1011.9 mb - 0.00 in0.0 mm 0.00 in0.0 mm
01:35 AM 75.6°F24.2°C 68.6°F20.3°C 79% Calm Calm 6.9 mph11.1 kmh 29.88 in1011.9 mb - 0.00 in0.0 mm 0.00 in0.0 mm
01:30 AM 75.6°F24.2°C 68.2°F20.1°C 78% 1.2 mph N1.9 kmh N 3.5 mph5.6 kmh 29.88 in1011.9 mb - 0.00 in0.0 mm 0.00 in0.0 mm
01:25 AM 75.7°F24.3°C 67.6°F19.8°C 76% Calm Calm 3.5 mph5.6 kmh 29.88 in1011.9 mb - 0.00 in0.0 mm 0.00 in0.0 mm
01:20 AM 75.6°F24.2°C 68.2°F20.1°C 78% Calm Calm 2.3 mph3.7 kmh 29.88 in1011.9 mb - 0.00 in0.0 mm 0.00 in0.0 mm
01:15 AM 75.7°F24.3°C 67.6°F19.8°C 76% 1.2 mph N1.9 kmh N 2.3 mph3.7 kmh 29.88 in1011.9 mb - 0.00 in0.0 mm 0.00 in0.0 mm
01:10 AM 75.7°F24.3°C 68.4°F20.2°C 78% Calm Calm 5.8 mph9.3 kmh 29.88 in1011.9 mb - 0.00 in0.0 mm 0.00 in0.0 mm
01:00 AM 75.6°F24.2°C 68.2°F20.1°C 78% Calm Calm 3.5 mph5.6 kmh 29.88 in1011.9 mb - 0.00 in0.0 mm 0.00 in0.0 mm
12:55 AM 75.7°F24.3°C 68.4°F20.2°C 78% Calm Calm 2.3 mph3.7 kmh 29.88 in1011.9 mb - 0.00 in0.0 mm 0.00 in0.0 mm
12:50 AM 76.1°F24.5°C 68.7°F20.4°C 78% Calm Calm -- 29.88 in1011.9 mb - 0.00 in0.0 mm 0.00 in0.0 mm
12:45 AM 76.1°F24.5°C 67.6°F19.8°C 75% Calm Calm -- 29.88 in1011.9 mb - 0.00 in0.0 mm 0.00 in0.0 mm
12:40 AM 76.1°F24.5°C 68.0°F20.0°C 76% Calm Calm 2.3 mph3.7 kmh 29.88 in1011.9 mb - 0.00 in0.0 mm 0.00 in0.0 mm
12:35 AM 76.3°F24.6°C 68.9°F20.5°C 78% Calm Calm 4.6 mph7.4 kmh 29.88 in1011.9 mb - 0.00 in0.0 mm 0.00 in0.0 mm
12:30 AM 76.3°F24.6°C 67.8°F19.9°C 75% 1.2 mph N1.9 kmh N 4.6 mph7.4 kmh 29.87 in1011.5 mb - 0.00 in0.0 mm 0.00 in0.0 mm
12:25 AM 76.3°F24.6°C 67.8°F19.9°C 75% 1.2 mph N1.9 kmh N 4.6 mph7.4 kmh 29.88 in1011.9 mb - 0.00 in0.0 mm 0.00 in0.0 mm
12:20 AM 76.3°F24.6°C 67.8°F19.9°C 75% Calm Calm -- 29.87 in1011.5 mb - 0.00 in0.0 mm 0.00 in0.0 mm
12:15 AM 76.3°F24.6°C 67.8°F19.9°C 75% Calm Calm 3.5 mph5.6 kmh 29.88 in1011.9 mb - 0.00 in0.0 mm 0.00 in0.0 mm
12:10 AM 76.5°F24.7°C 68.3°F20.2°C 76% Calm Calm 2.3 mph3.7 kmh 29.88 in1011.9 mb - 0.00 in0.0 mm 0.00 in0.0 mm
12:00 AM 76.3°F24.6°C 67.8°F19.9°C 75% Calm Calm -- 29.88 in1011.9 mb - 0.00 in0.0 mm 0.00 in0.0 mm